sensor_id;sensor_type;location;lat;lon;timestamp;P1;durP1;ratioP1;P2;durP2;ratioP2
28483;SDS011;15704;48.834;8.736;2022-10-31T00:01:16;9.75;;;2.40;;
28483;SDS011;15704;48.834;8.736;2022-10-31T00:03:42;11.88;;;2.95;;
28483;SDS011;15704;48.834;8.736;2022-10-31T00:06:08;9.45;;;2.25;;
28483;SDS011;15704;48.834;8.736;2022-10-31T00:08:33;5.28;;;2.00;;
28483;SDS011;15704;48.834;8.736;2022-10-31T00:10:59;10.95;;;2.38;;
28483;SDS011;15704;48.834;8.736;2022-10-31T00:13:25;14.63;;;2.47;;
28483;SDS011;15704;48.834;8.736;2022-10-31T00:15:50;8.70;;;2.30;;
28483;SDS011;15704;48.834;8.736;2022-10-31T00:18:16;9.07;;;2.45;;
28483;SDS011;15704;48.834;8.736;2022-10-31T00:20:41;8.80;;;2.63;;
28483;SDS011;15704;48.834;8.736;2022-10-31T00:23:07;6.03;;;2.10;;
28483;SDS011;15704;48.834;8.736;2022-10-31T00:25:34;9.70;;;2.30;;
28483;SDS011;15704;48.834;8.736;2022-10-31T00:28:02;14.38;;;2.35;;
28483;SDS011;15704;48.834;8.736;2022-10-31T00:30:28;7.68;;;2.25;;
28483;SDS011;15704;48.834;8.736;2022-10-31T00:32:53;8.63;;;2.47;;
28483;SDS011;15704;48.834;8.736;2022-10-31T00:35:19;6.65;;;2.10;;
28483;SDS011;15704;48.834;8.736;2022-10-31T00:37:45;12.23;;;2.75;;
28483;SDS011;15704;48.834;8.736;2022-10-31T00:40:10;8.82;;;3.10;;
28483;SDS011;15704;48.834;8.736;2022-10-31T00:42:36;13.95;;;2.55;;
28483;SDS011;15704;48.834;8.736;2022-10-31T00:45:03;7.28;;;2.20;;
28483;SDS011;15704;48.834;8.736;2022-10-31T00:47:29;12.27;;;3.08;;
28483;SDS011;15704;48.834;8.736;2022-10-31T00:49:55;5.18;;;2.08;;
28483;SDS011;15704;48.834;8.736;2022-10-31T00:56:14;9.38;;;2.83;;
28483;SDS011;15704;48.834;8.736;2022-10-31T00:58:39;5.63;;;2.60;;
28483;SDS011;15704;48.834;8.736;2022-10-31T01:01:05;7.05;;;2.33;;
28483;SDS011;15704;48.834;8.736;2022-10-31T01:03:31;10.52;;;2.75;;
28483;SDS011;15704;48.834;8.736;2022-10-31T01:08:29;9.90;;;2.60;;
28483;SDS011;15704;48.834;8.736;2022-10-31T01:13:41;7.35;;;2.55;;
28483;SDS011;15704;48.834;8.736;2022-10-31T01:16:08;7.55;;;2.33;;
28483;SDS011;15704;48.834;8.736;2022-10-31T01:18:36;10.55;;;2.72;;
28483;SDS011;15704;48.834;8.736;2022-10-31T01:21:06;8.63;;;2.58;;
28483;SDS011;15704;48.834;8.736;2022-10-31T01:23:34;7.65;;;3.03;;
28483;SDS011;15704;48.834;8.736;2022-10-31T01:28:27;11.20;;;2.40;;
28483;SDS011;15704;48.834;8.736;2022-10-31T01:30:52;7.55;;;2.22;;
28483;SDS011;15704;48.834;8.736;2022-10-31T01:33:18;6.00;;;2.05;;
28483;SDS011;15704;48.834;8.736;2022-10-31T01:35:44;13.07;;;3.30;;
28483;SDS011;15704;48.834;8.736;2022-10-31T01:38:09;9.27;;;3.00;;
28483;SDS011;15704;48.834;8.736;2022-10-31T01:40:35;9.23;;;2.47;;
28483;SDS011;15704;48.834;8.736;2022-10-31T01:43:00;10.10;;;2.55;;
28483;SDS011;15704;48.834;8.736;2022-10-31T01:45:26;9.63;;;2.50;;
28483;SDS011;15704;48.834;8.736;2022-10-31T01:47:51;10.75;;;2.72;;
28483;SDS011;15704;48.834;8.736;2022-10-31T01:50:28;9.80;;;2.50;;
28483;SDS011;15704;48.834;8.736;2022-10-31T01:52:58;9.75;;;2.53;;
28483;SDS011;15704;48.834;8.736;2022-10-31T01:57:55;7.97;;;2.60;;
28483;SDS011;15704;48.834;8.736;2022-10-31T02:00:23;15.02;;;2.70;;
28483;SDS011;15704;48.834;8.736;2022-10-31T02:02:49;10.88;;;2.83;;
28483;SDS011;15704;48.834;8.736;2022-10-31T02:05:17;19.13;;;3.00;;
28483;SDS011;15704;48.834;8.736;2022-10-31T02:07:48;8.32;;;2.67;;
28483;SDS011;15704;48.834;8.736;2022-10-31T02:10:21;12.85;;;2.70;;
28483;SDS011;15704;48.834;8.736;2022-10-31T02:12:48;17.08;;;3.00;;
28483;SDS011;15704;48.834;8.736;2022-10-31T02:15:16;12.02;;;2.75;;
28483;SDS011;15704;48.834;8.736;2022-10-31T02:17:42;7.65;;;2.25;;
28483;SDS011;15704;48.834;8.736;2022-10-31T02:20:20;17.52;;;2.55;;
28483;SDS011;15704;48.834;8.736;2022-10-31T02:28:43;10.48;;;2.38;;
28483;SDS011;15704;48.834;8.736;2022-10-31T02:33:55;9.82;;;3.67;;
28483;SDS011;15704;48.834;8.736;2022-10-31T02:36:43;8.77;;;2.88;;
28483;SDS011;15704;48.834;8.736;2022-10-31T02:47:14;16.30;;;2.67;;
28483;SDS011;15704;48.834;8.736;2022-10-31T02:52:17;5.30;;;2.40;;
28483;SDS011;15704;48.834;8.736;2022-10-31T02:54:46;15.35;;;2.90;;
28483;SDS011;15704;48.834;8.736;2022-10-31T02:57:13;13.70;;;3.90;;
28483;SDS011;15704;48.834;8.736;2022-10-31T02:59:42;10.10;;;2.80;;
28483;SDS011;15704;48.834;8.736;2022-10-31T03:15:32;7.50;;;2.78;;
28483;SDS011;15704;48.834;8.736;2022-10-31T03:18:04;12.32;;;2.67;;
28483;SDS011;15704;48.834;8.736;2022-10-31T03:20:42;10.70;;;2.17;;
28483;SDS011;15704;48.834;8.736;2022-10-31T03:23:17;19.83;;;2.55;;
28483;SDS011;15704;48.834;8.736;2022-10-31T03:25:44;16.50;;;2.85;;
28483;SDS011;15704;48.834;8.736;2022-10-31T03:28:12;9.23;;;2.15;;
28483;SDS011;15704;48.834;8.736;2022-10-31T03:30:41;7.95;;;2.47;;
28483;SDS011;15704;48.834;8.736;2022-10-31T03:33:09;6.70;;;2.28;;
28483;SDS011;15704;48.834;8.736;2022-10-31T03:35:38;11.60;;;2.58;;
28483;SDS011;15704;48.834;8.736;2022-10-31T03:38:07;8.63;;;2.47;;
28483;SDS011;15704;48.834;8.736;2022-10-31T03:40:34;13.15;;;3.58;;
28483;SDS011;15704;48.834;8.736;2022-10-31T03:43:04;10.93;;;2.90;;
28483;SDS011;15704;48.834;8.736;2022-10-31T03:45:33;14.00;;;2.20;;
28483;SDS011;15704;48.834;8.736;2022-10-31T03:48:05;9.70;;;2.67;;
28483;SDS011;15704;48.834;8.736;2022-10-31T03:53:39;9.57;;;3.38;;
28483;SDS011;15704;48.834;8.736;2022-10-31T03:58:59;8.48;;;2.55;;
28483;SDS011;15704;48.834;8.736;2022-10-31T04:01:30;7.72;;;2.42;;
28483;SDS011;15704;48.834;8.736;2022-10-31T04:03:59;8.70;;;2.25;;
28483;SDS011;15704;48.834;8.736;2022-10-31T04:06:27;11.05;;;2.53;;
28483;SDS011;15704;48.834;8.736;2022-10-31T04:08:56;8.45;;;2.70;;
28483;SDS011;15704;48.834;8.736;2022-10-31T04:11:27;4.47;;;2.45;;
28483;SDS011;15704;48.834;8.736;2022-10-31T04:13:57;8.43;;;2.20;;
28483;SDS011;15704;48.834;8.736;2022-10-31T04:16:25;9.80;;;2.63;;
28483;SDS011;15704;48.834;8.736;2022-10-31T04:18:52;4.95;;;2.15;;
28483;SDS011;15704;48.834;8.736;2022-10-31T04:21:18;8.18;;;2.45;;
28483;SDS011;15704;48.834;8.736;2022-10-31T04:23:43;4.50;;;2.25;;
28483;SDS011;15704;48.834;8.736;2022-10-31T04:26:12;13.10;;;2.80;;
28483;SDS011;15704;48.834;8.736;2022-10-31T04:28:38;8.63;;;2.40;;
28483;SDS011;15704;48.834;8.736;2022-10-31T04:31:03;10.05;;;3.58;;
28483;SDS011;15704;48.834;8.736;2022-10-31T04:33:30;9.27;;;2.63;;
28483;SDS011;15704;48.834;8.736;2022-10-31T04:35:55;4.65;;;2.08;;
28483;SDS011;15704;48.834;8.736;2022-10-31T04:38:21;18.42;;;2.58;;
28483;SDS011;15704;48.834;8.736;2022-10-31T04:40:47;19.23;;;2.83;;
28483;SDS011;15704;48.834;8.736;2022-10-31T04:43:13;10.75;;;2.50;;
28483;SDS011;15704;48.834;8.736;2022-10-31T04:45:38;5.25;;;2.40;;
28483;SDS011;15704;48.834;8.736;2022-10-31T04:48:04;11.80;;;3.17;;
28483;SDS011;15704;48.834;8.736;2022-10-31T04:50:29;10.80;;;3.42;;
28483;SDS011;15704;48.834;8.736;2022-10-31T04:52:55;10.75;;;2.63;;
28483;SDS011;15704;48.834;8.736;2022-10-31T04:55:20;9.57;;;2.50;;
28483;SDS011;15704;48.834;8.736;2022-10-31T04:57:47;14.20;;;2.95;;
28483;SDS011;15704;48.834;8.736;2022-10-31T05:00:14;13.85;;;3.35;;
28483;SDS011;15704;48.834;8.736;2022-10-31T05:02:42;7.38;;;3.17;;
28483;SDS011;15704;48.834;8.736;2022-10-31T05:05:12;9.25;;;3.10;;
28483;SDS011;15704;48.834;8.736;2022-10-31T05:07:42;6.50;;;2.65;;
28483;SDS011;15704;48.834;8.736;2022-10-31T05:10:09;12.05;;;3.10;;
28483;SDS011;15704;48.834;8.736;2022-10-31T05:12:36;18.88;;;2.97;;
28483;SDS011;15704;48.834;8.736;2022-10-31T05:15:02;8.00;;;2.78;;
28483;SDS011;15704;48.834;8.736;2022-10-31T05:17:28;6.53;;;3.00;;
28483;SDS011;15704;48.834;8.736;2022-10-31T05:19:53;6.53;;;2.55;;
28483;SDS011;15704;48.834;8.736;2022-10-31T05:22:19;14.00;;;3.22;;
28483;SDS011;15704;48.834;8.736;2022-10-31T05:24:45;13.68;;;3.95;;
28483;SDS011;15704;48.834;8.736;2022-10-31T05:27:10;26.25;;;3.20;;
28483;SDS011;15704;48.834;8.736;2022-10-31T05:29:36;8.07;;;2.65;;
28483;SDS011;15704;48.834;8.736;2022-10-31T05:32:01;8.38;;;2.85;;
28483;SDS011;15704;48.834;8.736;2022-10-31T05:34:27;12.00;;;3.47;;
28483;SDS011;15704;48.834;8.736;2022-10-31T05:36:52;15.45;;;5.25;;
28483;SDS011;15704;48.834;8.736;2022-10-31T05:39:18;10.73;;;3.20;;
28483;SDS011;15704;48.834;8.736;2022-10-31T05:41:43;14.00;;;2.92;;
28483;SDS011;15704;48.834;8.736;2022-10-31T05:44:09;12.00;;;3.00;;
28483;SDS011;15704;48.834;8.736;2022-10-31T05:46:34;8.10;;;2.72;;
28483;SDS011;15704;48.834;8.736;2022-10-31T05:49:00;10.85;;;3.38;;
28483;SDS011;15704;48.834;8.736;2022-10-31T05:51:26;7.25;;;3.15;;
28483;SDS011;15704;48.834;8.736;2022-10-31T05:53:51;5.63;;;2.60;;
28483;SDS011;15704;48.834;8.736;2022-10-31T05:56:17;5.78;;;2.75;;
28483;SDS011;15704;48.834;8.736;2022-10-31T05:58:42;8.32;;;3.20;;
28483;SDS011;15704;48.834;8.736;2022-10-31T06:01:08;6.90;;;2.90;;
28483;SDS011;15704;48.834;8.736;2022-10-31T06:03:33;17.58;;;3.10;;
28483;SDS011;15704;48.834;8.736;2022-10-31T06:05:59;22.05;;;4.75;;
28483;SDS011;15704;48.834;8.736;2022-10-31T06:08:25;10.93;;;2.97;;
28483;SDS011;15704;48.834;8.736;2022-10-31T06:10:50;9.82;;;3.63;;
28483;SDS011;15704;48.834;8.736;2022-10-31T06:13:18;8.88;;;2.53;;
28483;SDS011;15704;48.834;8.736;2022-10-31T06:15:43;10.10;;;3.22;;
28483;SDS011;15704;48.834;8.736;2022-10-31T06:18:09;20.27;;;3.55;;
28483;SDS011;15704;48.834;8.736;2022-10-31T06:20:34;14.13;;;3.10;;
28483;SDS011;15704;48.834;8.736;2022-10-31T06:23:00;15.38;;;3.15;;
28483;SDS011;15704;48.834;8.736;2022-10-31T06:25:26;7.97;;;2.90;;
28483;SDS011;15704;48.834;8.736;2022-10-31T06:27:52;11.90;;;3.30;;
28483;SDS011;15704;48.834;8.736;2022-10-31T06:30:18;9.60;;;3.20;;
28483;SDS011;15704;48.834;8.736;2022-10-31T06:32:44;8.82;;;3.13;;
28483;SDS011;15704;48.834;8.736;2022-10-31T06:35:09;9.88;;;3.03;;
28483;SDS011;15704;48.834;8.736;2022-10-31T06:37:35;8.70;;;2.75;;
28483;SDS011;15704;48.834;8.736;2022-10-31T06:40:01;15.90;;;3.90;;
28483;SDS011;15704;48.834;8.736;2022-10-31T06:42:27;11.90;;;3.30;;
28483;SDS011;15704;48.834;8.736;2022-10-31T06:44:52;18.00;;;3.17;;
28483;SDS011;15704;48.834;8.736;2022-10-31T06:47:18;12.75;;;3.88;;
28483;SDS011;15704;48.834;8.736;2022-10-31T06:49:43;11.60;;;3.08;;
28483;SDS011;15704;48.834;8.736;2022-10-31T06:52:09;9.15;;;2.53;;
28483;SDS011;15704;48.834;8.736;2022-10-31T06:54:35;24.33;;;3.13;;
28483;SDS011;15704;48.834;8.736;2022-10-31T06:57:01;9.88;;;2.53;;
28483;SDS011;15704;48.834;8.736;2022-10-31T06:59:27;11.80;;;2.38;;
28483;SDS011;15704;48.834;8.736;2022-10-31T07:01:52;16.02;;;2.65;;
28483;SDS011;15704;48.834;8.736;2022-10-31T07:04:18;8.95;;;2.75;;
28483;SDS011;15704;48.834;8.736;2022-10-31T07:06:44;21.30;;;2.97;;
28483;SDS011;15704;48.834;8.736;2022-10-31T07:09:09;10.35;;;2.35;;
28483;SDS011;15704;48.834;8.736;2022-10-31T07:11:35;13.25;;;2.90;;
28483;SDS011;15704;48.834;8.736;2022-10-31T07:14:00;9.70;;;3.13;;
28483;SDS011;15704;48.834;8.736;2022-10-31T07:16:26;19.05;;;2.65;;
28483;SDS011;15704;48.834;8.736;2022-10-31T07:18:52;5.65;;;2.15;;
28483;SDS011;15704;48.834;8.736;2022-10-31T07:21:17;7.57;;;2.53;;
28483;SDS011;15704;48.834;8.736;2022-10-31T07:23:43;10.98;;;2.65;;
28483;SDS011;15704;48.834;8.736;2022-10-31T07:26:09;12.48;;;2.75;;
28483;SDS011;15704;48.834;8.736;2022-10-31T07:28:35;9.52;;;2.83;;
28483;SDS011;15704;48.834;8.736;2022-10-31T07:31:00;6.32;;;2.78;;
28483;SDS011;15704;48.834;8.736;2022-10-31T07:33:26;7.22;;;2.75;;
28483;SDS011;15704;48.834;8.736;2022-10-31T07:35:52;8.77;;;2.85;;
28483;SDS011;15704;48.834;8.736;2022-10-31T07:38:18;7.57;;;3.15;;
28483;SDS011;15704;48.834;8.736;2022-10-31T07:40:43;10.15;;;2.88;;
28483;SDS011;15704;48.834;8.736;2022-10-31T07:43:14;15.48;;;3.30;;
28483;SDS011;15704;48.834;8.736;2022-10-31T07:45:39;9.07;;;2.47;;
28483;SDS011;15704;48.834;8.736;2022-10-31T07:48:05;8.98;;;2.85;;
28483;SDS011;15704;48.834;8.736;2022-10-31T07:50:32;8.23;;;2.35;;
28483;SDS011;15704;48.834;8.736;2022-10-31T07:53:02;11.43;;;2.63;;
28483;SDS011;15704;48.834;8.736;2022-10-31T07:55:30;15.30;;;3.08;;
28483;SDS011;15704;48.834;8.736;2022-10-31T07:57:56;13.02;;;3.08;;
28483;SDS011;15704;48.834;8.736;2022-10-31T08:00:22;7.57;;;2.10;;
28483;SDS011;15704;48.834;8.736;2022-10-31T08:02:48;11.40;;;3.60;;
28483;SDS011;15704;48.834;8.736;2022-10-31T08:05:20;10.23;;;2.75;;
28483;SDS011;15704;48.834;8.736;2022-10-31T08:07:46;12.95;;;2.40;;
28483;SDS011;15704;48.834;8.736;2022-10-31T08:10:11;9.00;;;3.35;;
28483;SDS011;15704;48.834;8.736;2022-10-31T08:12:38;9.48;;;2.88;;
28483;SDS011;15704;48.834;8.736;2022-10-31T08:15:03;7.03;;;2.80;;
28483;SDS011;15704;48.834;8.736;2022-10-31T08:17:29;8.60;;;2.47;;
28483;SDS011;15704;48.834;8.736;2022-10-31T08:19:55;5.88;;;2.28;;
28483;SDS011;15704;48.834;8.736;2022-10-31T08:22:20;15.20;;;3.47;;
28483;SDS011;15704;48.834;8.736;2022-10-31T08:24:46;10.18;;;2.83;;
28483;SDS011;15704;48.834;8.736;2022-10-31T08:27:11;4.85;;;1.95;;
28483;SDS011;15704;48.834;8.736;2022-10-31T08:29:37;9.65;;;2.60;;
28483;SDS011;15704;48.834;8.736;2022-10-31T08:32:02;9.07;;;2.50;;
28483;SDS011;15704;48.834;8.736;2022-10-31T08:34:28;9.43;;;2.47;;
28483;SDS011;15704;48.834;8.736;2022-10-31T08:36:54;6.15;;;2.13;;
28483;SDS011;15704;48.834;8.736;2022-10-31T08:39:19;12.27;;;2.40;;
28483;SDS011;15704;48.834;8.736;2022-10-31T08:41:45;16.08;;;4.53;;
28483;SDS011;15704;48.834;8.736;2022-10-31T08:44:10;13.50;;;5.03;;
28483;SDS011;15704;48.834;8.736;2022-10-31T08:46:36;5.70;;;2.80;;
28483;SDS011;15704;48.834;8.736;2022-10-31T08:49:01;6.25;;;2.70;;
28483;SDS011;15704;48.834;8.736;2022-10-31T08:51:27;11.65;;;3.00;;
28483;SDS011;15704;48.834;8.736;2022-10-31T08:53:52;8.07;;;2.55;;
28483;SDS011;15704;48.834;8.736;2022-10-31T08:56:18;11.40;;;3.45;;
28483;SDS011;15704;48.834;8.736;2022-10-31T08:58:44;10.88;;;2.28;;
28483;SDS011;15704;48.834;8.736;2022-10-31T09:01:09;11.38;;;3.25;;
28483;SDS011;15704;48.834;8.736;2022-10-31T09:03:35;11.95;;;3.03;;
28483;SDS011;15704;48.834;8.736;2022-10-31T09:06:01;22.05;;;3.05;;
28483;SDS011;15704;48.834;8.736;2022-10-31T09:08:31;11.27;;;2.90;;
28483;SDS011;15704;48.834;8.736;2022-10-31T09:10:57;10.80;;;2.65;;
28483;SDS011;15704;48.834;8.736;2022-10-31T09:13:23;8.10;;;2.10;;
28483;SDS011;15704;48.834;8.736;2022-10-31T09:15:50;9.05;;;2.17;;
28483;SDS011;15704;48.834;8.736;2022-10-31T09:18:16;9.07;;;2.33;;
28483;SDS011;15704;48.834;8.736;2022-10-31T09:20:44;11.48;;;3.70;;
28483;SDS011;15704;48.834;8.736;2022-10-31T09:23:12;16.27;;;2.85;;
28483;SDS011;15704;48.834;8.736;2022-10-31T09:25:39;7.10;;;2.13;;
28483;SDS011;15704;48.834;8.736;2022-10-31T09:28:06;9.57;;;2.75;;
28483;SDS011;15704;48.834;8.736;2022-10-31T09:30:34;9.25;;;2.40;;
28483;SDS011;15704;48.834;8.736;2022-10-31T09:33:01;12.70;;;3.17;;
28483;SDS011;15704;48.834;8.736;2022-10-31T09:35:28;8.45;;;2.97;;
28483;SDS011;15704;48.834;8.736;2022-10-31T09:37:58;14.23;;;2.20;;
28483;SDS011;15704;48.834;8.736;2022-10-31T09:40:35;3.63;;;1.80;;
28483;SDS011;15704;48.834;8.736;2022-10-31T09:46:10;6.90;;;2.30;;
28483;SDS011;15704;48.834;8.736;2022-10-31T09:49:02;11.05;;;2.40;;
28483;SDS011;15704;48.834;8.736;2022-10-31T09:55:04;6.65;;;2.15;;
28483;SDS011;15704;48.834;8.736;2022-10-31T09:57:45;6.22;;;2.08;;
28483;SDS011;15704;48.834;8.736;2022-10-31T10:00:16;8.90;;;2.00;;
28483;SDS011;15704;48.834;8.736;2022-10-31T10:02:46;8.98;;;2.42;;
28483;SDS011;15704;48.834;8.736;2022-10-31T10:05:46;10.70;;;2.08;;
28483;SDS011;15704;48.834;8.736;2022-10-31T10:08:19;8.63;;;2.10;;
28483;SDS011;15704;48.834;8.736;2022-10-31T10:10:49;13.48;;;2.53;;
28483;SDS011;15704;48.834;8.736;2022-10-31T10:30:07;6.20;;;2.50;;
28483;SDS011;15704;48.834;8.736;2022-10-31T10:32:59;11.48;;;3.65;;
28483;SDS011;15704;48.834;8.736;2022-10-31T10:35:34;8.38;;;2.67;;
28483;SDS011;15704;48.834;8.736;2022-10-31T10:41:02;13.13;;;2.38;;
28483;SDS011;15704;48.834;8.736;2022-10-31T10:43:34;17.13;;;3.00;;
28483;SDS011;15704;48.834;8.736;2022-10-31T10:46:05;20.40;;;3.88;;
28483;SDS011;15704;48.834;8.736;2022-10-31T10:49:13;14.95;;;2.83;;
28483;SDS011;15704;48.834;8.736;2022-10-31T10:57:41;16.02;;;3.38;;
28483;SDS011;15704;48.834;8.736;2022-10-31T11:00:26;9.63;;;3.13;;
28483;SDS011;15704;48.834;8.736;2022-10-31T11:02:57;14.10;;;2.88;;
28483;SDS011;15704;48.834;8.736;2022-10-31T11:05:36;12.68;;;2.85;;
28483;SDS011;15704;48.834;8.736;2022-10-31T11:08:33;13.45;;;4.15;;
28483;SDS011;15704;48.834;8.736;2022-10-31T11:13:34;9.70;;;2.97;;
28483;SDS011;15704;48.834;8.736;2022-10-31T11:16:05;12.82;;;3.50;;
28483;SDS011;15704;48.834;8.736;2022-10-31T11:18:36;13.02;;;3.03;;
28483;SDS011;15704;48.834;8.736;2022-10-31T11:21:04;6.35;;;2.50;;
28483;SDS011;15704;48.834;8.736;2022-10-31T11:23:31;5.40;;;2.80;;
28483;SDS011;15704;48.834;8.736;2022-10-31T11:25:59;12.25;;;2.60;;
28483;SDS011;15704;48.834;8.736;2022-10-31T11:28:30;9.30;;;2.67;;
28483;SDS011;15704;48.834;8.736;2022-10-31T11:30:59;6.72;;;2.50;;
28483;SDS011;15704;48.834;8.736;2022-10-31T11:36:23;21.40;;;3.10;;
28483;SDS011;15704;48.834;8.736;2022-10-31T11:38:50;9.32;;;2.70;;
28483;SDS011;15704;48.834;8.736;2022-10-31T11:41:17;10.38;;;2.60;;
28483;SDS011;15704;48.834;8.736;2022-10-31T11:43:54;6.05;;;2.47;;
28483;SDS011;15704;48.834;8.736;2022-10-31T11:46:30;10.02;;;2.53;;
28483;SDS011;15704;48.834;8.736;2022-10-31T11:49:16;12.90;;;2.53;;
28483;SDS011;15704;48.834;8.736;2022-10-31T11:51:46;5.55;;;2.97;;
28483;SDS011;15704;48.834;8.736;2022-10-31T11:54:20;10.50;;;3.17;;
28483;SDS011;15704;48.834;8.736;2022-10-31T11:56:51;11.73;;;3.08;;
28483;SDS011;15704;48.834;8.736;2022-10-31T11:59:21;11.85;;;2.72;;
28483;SDS011;15704;48.834;8.736;2022-10-31T12:01:56;11.90;;;2.72;;
28483;SDS011;15704;48.834;8.736;2022-10-31T12:04:31;10.85;;;3.00;;
28483;SDS011;15704;48.834;8.736;2022-10-31T12:07:02;7.85;;;2.58;;
28483;SDS011;15704;48.834;8.736;2022-10-31T12:09:28;14.65;;;3.90;;
28483;SDS011;15704;48.834;8.736;2022-10-31T12:22:40;11.13;;;2.83;;
28483;SDS011;15704;48.834;8.736;2022-10-31T12:25:30;14.15;;;3.28;;
28483;SDS011;15704;48.834;8.736;2022-10-31T12:58:26;15.73;;;3.80;;
28483;SDS011;15704;48.834;8.736;2022-10-31T13:06:12;10.88;;;3.58;;
28483;SDS011;15704;48.834;8.736;2022-10-31T13:08:51;41.92;;;4.47;;
28483;SDS011;15704;48.834;8.736;2022-10-31T13:11:24;9.30;;;3.20;;
28483;SDS011;15704;48.834;8.736;2022-10-31T13:16:37;13.35;;;4.57;;
28483;SDS011;15704;48.834;8.736;2022-10-31T13:19:22;23.95;;;7.90;;
28483;SDS011;15704;48.834;8.736;2022-10-31T13:24:23;15.43;;;3.70;;
28483;SDS011;15704;48.834;8.736;2022-10-31T13:27:11;12.75;;;6.10;;
28483;SDS011;15704;48.834;8.736;2022-10-31T13:30:03;15.30;;;7.55;;
28483;SDS011;15704;48.834;8.736;2022-10-31T13:32:41;13.90;;;5.22;;
28483;SDS011;15704;48.834;8.736;2022-10-31T13:35:26;9.70;;;3.65;;
28483;SDS011;15704;48.834;8.736;2022-10-31T13:38:11;14.25;;;4.10;;
28483;SDS011;15704;48.834;8.736;2022-10-31T13:40:54;9.85;;;3.90;;
28483;SDS011;15704;48.834;8.736;2022-10-31T13:43:58;15.93;;;3.33;;
28483;SDS011;15704;48.834;8.736;2022-10-31T13:46:35;9.45;;;3.95;;
28483;SDS011;15704;48.834;8.736;2022-10-31T13:49:03;17.10;;;3.88;;
28483;SDS011;15704;48.834;8.736;2022-10-31T13:51:30;11.57;;;3.38;;
28483;SDS011;15704;48.834;8.736;2022-10-31T13:53:59;9.82;;;3.78;;
28483;SDS011;15704;48.834;8.736;2022-10-31T13:56:44;9.45;;;2.85;;
28483;SDS011;15704;48.834;8.736;2022-10-31T13:59:16;15.60;;;4.05;;
28483;SDS011;15704;48.834;8.736;2022-10-31T14:01:47;11.52;;;3.17;;
28483;SDS011;15704;48.834;8.736;2022-10-31T14:04:23;10.98;;;3.13;;
28483;SDS011;15704;48.834;8.736;2022-10-31T14:09:38;10.80;;;2.60;;
28483;SDS011;15704;48.834;8.736;2022-10-31T14:12:29;9.27;;;3.63;;
28483;SDS011;15704;48.834;8.736;2022-10-31T14:17:49;16.88;;;3.80;;
28483;SDS011;15704;48.834;8.736;2022-10-31T14:22:44;9.13;;;3.17;;
28483;SDS011;15704;48.834;8.736;2022-10-31T14:27:54;10.68;;;3.55;;
28483;SDS011;15704;48.834;8.736;2022-10-31T14:30:22;8.20;;;3.22;;
28483;SDS011;15704;48.834;8.736;2022-10-31T14:32:50;14.70;;;3.10;;
28483;SDS011;15704;48.834;8.736;2022-10-31T14:35:18;7.68;;;3.40;;
28483;SDS011;15704;48.834;8.736;2022-10-31T14:40:46;8.50;;;2.75;;
28483;SDS011;15704;48.834;8.736;2022-10-31T14:51:22;8.18;;;3.10;;
28483;SDS011;15704;48.834;8.736;2022-10-31T14:53:54;8.75;;;3.25;;
28483;SDS011;15704;48.834;8.736;2022-10-31T14:56:30;16.42;;;3.67;;
28483;SDS011;15704;48.834;8.736;2022-10-31T14:59:19;14.05;;;4.28;;
28483;SDS011;15704;48.834;8.736;2022-10-31T15:01:52;10.23;;;3.97;;
28483;SDS011;15704;48.834;8.736;2022-10-31T15:04:25;29.48;;;5.22;;
28483;SDS011;15704;48.834;8.736;2022-10-31T15:07:06;11.98;;;4.05;;
28483;SDS011;15704;48.834;8.736;2022-10-31T15:09:40;14.70;;;4.35;;
28483;SDS011;15704;48.834;8.736;2022-10-31T15:12:27;10.30;;;4.07;;
28483;SDS011;15704;48.834;8.736;2022-10-31T15:14:54;12.43;;;4.68;;
28483;SDS011;15704;48.834;8.736;2022-10-31T15:17:21;10.50;;;4.93;;
28483;SDS011;15704;48.834;8.736;2022-10-31T15:19:49;11.88;;;5.25;;
28483;SDS011;15704;48.834;8.736;2022-10-31T15:22:17;15.93;;;5.18;;
28483;SDS011;15704;48.834;8.736;2022-10-31T15:24:44;19.02;;;5.50;;
28483;SDS011;15704;48.834;8.736;2022-10-31T15:27:11;10.93;;;4.68;;
28483;SDS011;15704;48.834;8.736;2022-10-31T15:29:54;13.25;;;5.20;;
28483;SDS011;15704;48.834;8.736;2022-10-31T15:34:48;12.48;;;5.57;;
28483;SDS011;15704;48.834;8.736;2022-10-31T15:37:16;16.15;;;5.70;;
28483;SDS011;15704;48.834;8.736;2022-10-31T15:39:43;19.58;;;6.78;;
28483;SDS011;15704;48.834;8.736;2022-10-31T15:44:42;12.48;;;4.95;;
28483;SDS011;15704;48.834;8.736;2022-10-31T15:47:22;17.45;;;5.45;;
28483;SDS011;15704;48.834;8.736;2022-10-31T15:49:50;19.67;;;6.13;;
28483;SDS011;15704;48.834;8.736;2022-10-31T15:52:38;16.95;;;5.43;;
28483;SDS011;15704;48.834;8.736;2022-10-31T15:57:33;17.17;;;5.70;;
28483;SDS011;15704;48.834;8.736;2022-10-31T16:00:04;12.85;;;5.35;;
28483;SDS011;15704;48.834;8.736;2022-10-31T16:02:30;18.15;;;5.85;;
28483;SDS011;15704;48.834;8.736;2022-10-31T16:04:57;33.28;;;6.20;;
28483;SDS011;15704;48.834;8.736;2022-10-31T16:07:26;12.60;;;5.30;;
28483;SDS011;15704;48.834;8.736;2022-10-31T16:10:00;9.77;;;4.50;;
28483;SDS011;15704;48.834;8.736;2022-10-31T16:12:37;13.82;;;4.88;;
28483;SDS011;15704;48.834;8.736;2022-10-31T16:15:16;13.17;;;4.83;;
28483;SDS011;15704;48.834;8.736;2022-10-31T16:17:44;15.40;;;6.10;;
28483;SDS011;15704;48.834;8.736;2022-10-31T16:20:18;17.15;;;5.10;;
28483;SDS011;15704;48.834;8.736;2022-10-31T16:22:50;16.77;;;5.65;;
28483;SDS011;15704;48.834;8.736;2022-10-31T16:25:33;15.80;;;5.07;;
28483;SDS011;15704;48.834;8.736;2022-10-31T16:28:03;16.60;;;5.30;;
28483;SDS011;15704;48.834;8.736;2022-10-31T16:30:47;22.80;;;5.25;;
28483;SDS011;15704;48.834;8.736;2022-10-31T16:35:52;13.55;;;5.63;;
28483;SDS011;15704;48.834;8.736;2022-10-31T16:38:19;12.43;;;5.47;;
28483;SDS011;15704;48.834;8.736;2022-10-31T16:40:44;24.58;;;5.82;;
28483;SDS011;15704;48.834;8.736;2022-10-31T16:43:11;52.00;;;19.48;;
28483;SDS011;15704;48.834;8.736;2022-10-31T16:45:42;19.27;;;7.53;;
28483;SDS011;15704;48.834;8.736;2022-10-31T16:48:12;14.38;;;6.82;;
28483;SDS011;15704;48.834;8.736;2022-10-31T16:50:40;35.45;;;8.05;;
28483;SDS011;15704;48.834;8.736;2022-10-31T16:53:06;23.33;;;6.53;;
28483;SDS011;15704;48.834;8.736;2022-10-31T16:55:32;16.38;;;6.03;;
28483;SDS011;15704;48.834;8.736;2022-10-31T16:58:00;18.05;;;8.13;;
28483;SDS011;15704;48.834;8.736;2022-10-31T17:00:26;16.17;;;7.75;;
28483;SDS011;15704;48.834;8.736;2022-10-31T17:02:54;28.98;;;14.63;;
28483;SDS011;15704;48.834;8.736;2022-10-31T17:05:23;27.48;;;11.75;;
28483;SDS011;15704;48.834;8.736;2022-10-31T17:07:54;14.18;;;6.03;;
28483;SDS011;15704;48.834;8.736;2022-10-31T17:10:24;17.55;;;5.18;;
28483;SDS011;15704;48.834;8.736;2022-10-31T17:12:50;17.88;;;6.15;;
28483;SDS011;15704;48.834;8.736;2022-10-31T17:15:20;19.88;;;7.10;;
28483;SDS011;15704;48.834;8.736;2022-10-31T17:17:48;20.55;;;5.65;;
28483;SDS011;15704;48.834;8.736;2022-10-31T17:22:53;19.60;;;5.20;;
28483;SDS011;15704;48.834;8.736;2022-10-31T17:25:21;21.23;;;5.53;;
28483;SDS011;15704;48.834;8.736;2022-10-31T17:27:49;15.48;;;5.45;;
28483;SDS011;15704;48.834;8.736;2022-10-31T17:30:16;7.97;;;4.80;;
28483;SDS011;15704;48.834;8.736;2022-10-31T17:32:43;15.88;;;6.78;;
28483;SDS011;15704;48.834;8.736;2022-10-31T17:35:11;14.15;;;5.43;;
28483;SDS011;15704;48.834;8.736;2022-10-31T17:37:37;23.85;;;12.27;;
28483;SDS011;15704;48.834;8.736;2022-10-31T17:40:04;54.92;;;23.60;;
28483;SDS011;15704;48.834;8.736;2022-10-31T17:42:30;17.83;;;7.53;;
28483;SDS011;15704;48.834;8.736;2022-10-31T17:44:56;19.23;;;6.35;;
28483;SDS011;15704;48.834;8.736;2022-10-31T17:47:21;14.50;;;6.47;;
28483;SDS011;15704;48.834;8.736;2022-10-31T17:49:47;23.83;;;11.80;;